Terminal Aerodrome Forecast
Issued by NWS

Home | Current Version | Previous Version | Text Only | Print | Product List | Glossary On
Versions: 1 2 3 4 5 6 7 8 9 10 11 12 13 14 15 16 17 18 19 20 21
020
FTUS41 KPBZ 052344
TAFZZV
TAF
KZZV 052344Z 0600/0624 VRB03KT P6SM SCT200
     FM060500 20003KT P6SM BKN040
     FM061400 24006KT P6SM SCT025 SCT070=

USA.gov is the U.S. government's official web portal to all federal, state and local government web resources and services.